Strona główna
METAR-TAF:

METAR-TAF

Lotnisko :

Somerset-Pulaski County Airport (J.T. Wilson Field)

Somerset, Kentucky, Stany Zjednoczone

Szerokość geograficzna: 37-03-15N, Długość geograficzna: 084-36-54W, wysokość: 283 m

Aktualna obserwacja pogody

Raport powstał 36 minut temu, godzina 07:15 UTC
Wiatr 6 kt od północno-północny zachód
Temperatura -8°C
Wilgotność 67%
Ciśnienie 1030 hPa
Widzialność: 16.1 km
Zachmurzenie całkowite na wysokości 1900 ft

METAR: KSME 200715Z AUTO 34006KT 10SM OVC019 M08/M13 A3043 RMK AO2

czas: 02:51 (07:51 UTC)

Prognoza

Raport powstał 2 godziny i 12 minut temu, godzina 05:39 UTC
Prognoza ważna od 20 godzina 06 UTC do 21 godzina 06 UTC
Wiatr 7 kt od północ
Widzialność: 10 km
Rozproszone chmury na wysokości 1500 ft
Zachmurzenie całkowite na wysokości 2500 ft
Od 20 godzina 1400 UTC
Wiatr 3 kt z kierunków zmiennych
Widzialność: 10 km
Rozproszone chmury na wysokości 2500 ft

TAF: KSME 200539Z 2006/2106 35007KT P6SM SCT015 OVC025 FM201400 VRB03KT P6SM SCT025

Obserwacja i prognoza pogody dla ponad 4000 lotnisk (raport METAR i TAF).

Dostępne stacje oznaczono żółtymi i czerwonymi punktami na mapie.

Najedź kursorem aby zobaczyć nazwę stacji.

Kliknij aby zobaczyć obserwacje i prognozy pogody.

Aby zmienić mapę: kliknij na zielony przycisk z czarnym krzyżykiem, aby powiększyć; na zielony przycisk z myślnikiem, aby pomniejszyć; na zielone strzałki, aby przejść do map sąsiednich.


METAR-TAF: